createdAt,value
2023-02-12T00:00:30.247Z,42.50
2023-02-12T00:01:30.218Z,41.80
2023-02-12T00:02:30.319Z,41.20
2023-02-12T00:03:30.203Z,43.00
2023-02-12T00:04:30.211Z,42.40
2023-02-12T00:05:30.140Z,39.40
2023-02-12T00:06:30.169Z,38.30
2023-02-12T00:07:30.126Z,37.00
2023-02-12T00:08:30.142Z,42.10
2023-02-12T00:09:30.115Z,36.80
2023-02-12T00:10:30.132Z,38.30
2023-02-12T00:11:30.120Z,34.40
2023-02-12T00:12:30.097Z,34.70
2023-02-12T00:13:30.033Z,37.70
2023-02-12T00:14:30.107Z,37.80
2023-02-12T00:15:30.083Z,41.70
2023-02-12T00:16:30.055Z,37.40
2023-02-12T00:17:29.995Z,39.90
2023-02-12T00:18:30.001Z,36.10
2023-02-12T00:19:29.955Z,36.50
2023-02-12T00:20:29.988Z,37.80
2023-02-12T00:21:29.966Z,40.00
2023-02-12T00:22:29.955Z,42.40
2023-02-12T00:23:29.918Z,39.60
2023-02-12T00:24:29.939Z,41.10
2023-02-12T00:25:29.887Z,41.90
2023-02-12T00:26:29.911Z,43.90
2023-02-12T00:27:29.857Z,44.00
2023-02-12T00:28:29.917Z,44.60
2023-02-12T00:29:29.828Z,40.90
2023-02-12T00:30:29.854Z,41.10
2023-02-12T00:31:29.888Z,46.70
2023-02-12T00:32:29.818Z,43.30
2023-02-12T00:33:29.779Z,43.30
2023-02-12T00:34:29.782Z,40.60
2023-02-12T00:35:29.745Z,40.10
2023-02-12T00:36:29.761Z,44.10
2023-02-12T00:37:29.742Z,42.40
2023-02-12T00:38:29.750Z,46.30
2023-02-12T00:39:29.694Z,45.90
2023-02-12T00:40:29.708Z,48.90
2023-02-12T00:41:29.696Z,55.90
2023-02-12T00:42:29.692Z,49.80
2023-02-12T00:43:29.637Z,49.10
2023-02-12T00:44:29.653Z,49.20
2023-02-12T00:45:29.620Z,52.50
2023-02-12T00:46:29.727Z,53.40
2023-02-12T00:47:29.583Z,46.80
2023-02-12T00:48:29.629Z,44.90
2023-02-12T00:49:29.560Z,47.20
2023-02-12T00:50:31.775Z,47.80
2023-02-12T00:51:29.534Z,45.00
2023-02-12T00:52:29.542Z,46.50
2023-02-12T00:53:29.522Z,46.60
2023-02-12T00:54:29.537Z,49.20
2023-02-12T00:55:29.503Z,51.30
2023-02-12T00:56:29.485Z,51.40
2023-02-12T00:57:29.460Z,56.70
2023-02-12T00:58:29.487Z,50.10
2023-02-12T00:59:29.460Z,52.30
2023-02-12T01:00:29.434Z,50.20
2023-02-12T01:01:29.515Z,48.70
2023-02-12T01:02:29.417Z,51.20
2023-02-12T01:03:29.396Z,48.00
2023-02-12T01:04:29.409Z,49.90
2023-02-12T01:05:29.347Z,43.90
2023-02-12T01:06:29.359Z,49.50
2023-02-12T01:07:29.314Z,44.40
2023-02-12T01:08:29.332Z,44.00
2023-02-12T01:09:29.313Z,42.00
2023-02-12T01:10:29.317Z,39.40
2023-02-12T01:11:29.323Z,42.70
2023-02-12T01:12:29.276Z,44.60
2023-02-12T01:13:29.251Z,45.00
2023-02-12T01:14:29.267Z,45.30
2023-02-12T01:15:29.215Z,45.80
2023-02-12T01:16:29.242Z,42.90
2023-02-12T01:17:29.214Z,41.80
2023-02-12T01:18:29.179Z,44.90
2023-02-12T01:19:29.201Z,44.30
2023-02-12T01:20:29.158Z,44.70
2023-02-12T01:21:29.364Z,42.10
2023-02-12T01:22:29.123Z,44.30
2023-02-12T01:23:29.150Z,46.90
2023-02-12T01:24:29.121Z,39.70
2023-02-12T01:25:29.105Z,46.10
2023-02-12T01:26:29.081Z,42.60
2023-02-12T01:27:29.146Z,46.50
2023-02-12T01:28:29.071Z,42.10
2023-02-12T01:29:29.077Z,42.20
2023-02-12T01:30:29.012Z,45.80
2023-02-12T01:31:29.176Z,39.60
2023-02-12T01:32:28.983Z,41.10
2023-02-12T01:33:28.997Z,40.10
2023-02-12T01:34:28.992Z,37.90
2023-02-12T01:35:28.975Z,39.40
2023-02-12T01:36:28.957Z,42.20
2023-02-12T01:37:28.952Z,44.30
2023-02-12T01:38:28.909Z,43.80
2023-02-12T01:39:28.933Z,42.30
2023-02-12T01:40:28.904Z,42.90
2023-02-12T01:41:28.915Z,40.20
2023-02-12T01:42:28.868Z,39.60
2023-02-12T01:43:28.882Z,40.50
2023-02-12T01:44:28.857Z,40.40
2023-02-12T01:45:28.897Z,40.30
2023-02-12T01:46:28.837Z,39.90
2023-02-12T01:47:28.828Z,43.40
2023-02-12T01:48:28.776Z,42.50
2023-02-12T01:49:28.821Z,42.00
2023-02-12T01:50:28.742Z,41.20
2023-02-12T01:51:28.819Z,40.30
2023-02-12T01:52:28.743Z,41.90
2023-02-12T01:53:28.734Z,43.30
2023-02-12T01:54:28.696Z,44.90
2023-02-12T01:55:28.725Z,44.80
2023-02-12T01:56:28.688Z,44.00
2023-02-12T01:57:28.708Z,45.50
2023-02-12T01:58:28.645Z,40.60
2023-02-12T01:59:28.649Z,50.00
2023-02-12T02:00:28.642Z,47.30
2023-02-12T02:01:28.673Z,45.20
2023-02-12T02:02:28.612Z,48.20
2023-02-12T02:03:28.645Z,47.70
2023-02-12T02:04:28.565Z,47.40
2023-02-12T02:05:28.588Z,47.20
2023-02-12T02:06:28.540Z,44.50
2023-02-12T02:07:28.577Z,47.30
2023-02-12T02:08:28.534Z,46.50
2023-02-12T02:09:28.529Z,44.80
2023-02-12T02:10:28.485Z,45.80
2023-02-12T02:11:28.511Z,43.70
2023-02-12T02:12:28.469Z,42.80
2023-02-12T02:13:28.484Z,42.60
2023-02-12T02:14:28.468Z,39.80
2023-02-12T02:15:28.430Z,42.90
2023-02-12T02:16:28.458Z,43.90
2023-02-12T02:17:28.414Z,47.10
2023-02-12T02:18:28.389Z,43.10
2023-02-12T02:19:28.401Z,41.60
2023-02-12T02:20:28.345Z,44.80
2023-02-12T02:21:28.360Z,46.30
2023-02-12T02:22:28.327Z,43.70
2023-02-12T02:23:28.348Z,48.00
2023-02-12T02:24:28.321Z,43.50
2023-02-12T02:25:28.337Z,44.70
2023-02-12T02:26:28.269Z,44.60
2023-02-12T02:27:28.270Z,44.90
2023-02-12T02:28:28.268Z,46.80
2023-02-12T02:29:28.248Z,50.00
2023-02-12T02:30:28.215Z,46.60
2023-02-12T02:31:28.375Z,48.70
2023-02-12T02:32:28.209Z,46.80
2023-02-12T02:33:28.205Z,49.10
2023-02-12T02:34:28.184Z,46.00
2023-02-12T02:35:28.145Z,47.60
2023-02-12T02:36:28.154Z,48.00
2023-02-12T02:37:28.133Z,50.20
2023-02-12T02:38:28.128Z,48.90
2023-02-12T02:39:28.098Z,49.10
2023-02-12T02:40:28.099Z,47.70
2023-02-12T02:41:28.074Z,47.70
2023-02-12T02:42:28.103Z,43.20
2023-02-12T02:43:28.060Z,48.60
2023-02-12T02:44:28.064Z,46.00
2023-02-12T02:45:28.060Z,47.00
2023-02-12T02:46:28.054Z,49.30
2023-02-12T02:47:27.985Z,47.10
2023-02-12T02:48:28.040Z,45.10
2023-02-12T02:49:27.966Z,41.70
2023-02-12T02:50:27.970Z,45.90
2023-02-12T02:51:27.940Z,46.70
2023-02-12T02:52:27.940Z,45.60
2023-02-12T02:53:27.950Z,42.90
2023-02-12T02:54:27.947Z,44.50
2023-02-12T02:55:27.884Z,44.50
2023-02-12T02:56:27.882Z,46.40
2023-02-12T02:57:27.852Z,46.30
2023-02-12T02:58:27.908Z,47.80
2023-02-12T02:59:27.827Z,44.00
2023-02-12T03:00:27.842Z,46.10
2023-02-12T03:01:27.806Z,41.80
2023-02-12T03:02:27.815Z,47.90
2023-02-12T03:03:27.790Z,42.30
2023-02-12T03:04:27.800Z,42.50
2023-02-12T03:05:27.752Z,40.80
2023-02-12T03:06:27.773Z,43.00
2023-02-12T03:07:27.708Z,46.00
2023-02-12T03:08:27.749Z,40.00
2023-02-12T03:09:27.691Z,39.70
2023-02-12T03:10:27.733Z,45.00
2023-02-12T03:11:27.703Z,40.40
2023-02-12T03:12:27.684Z,42.80
2023-02-12T03:13:27.679Z,46.90
2023-02-12T03:14:27.636Z,41.60
2023-02-12T03:15:27.601Z,40.10
2023-02-12T03:16:27.673Z,41.60
2023-02-12T03:17:27.592Z,44.60
2023-02-12T03:18:27.611Z,39.40
2023-02-12T03:19:27.592Z,42.30
2023-02-12T03:20:27.567Z,42.50
2023-02-12T03:21:27.526Z,43.00
2023-02-12T03:22:27.541Z,40.20
2023-02-12T03:23:27.539Z,41.70
2023-02-12T03:24:27.523Z,41.40
2023-02-12T03:25:27.485Z,44.50
2023-02-12T03:26:27.540Z,43.10
2023-02-12T03:27:27.444Z,45.70
2023-02-12T03:28:27.576Z,43.60
2023-02-12T03:29:27.443Z,39.80
2023-02-12T03:30:27.479Z,35.50
2023-02-12T03:31:27.507Z,39.90
2023-02-12T03:32:27.415Z,40.10
2023-02-12T03:33:27.460Z,42.90
2023-02-12T03:34:27.399Z,40.10
2023-02-12T03:35:27.376Z,40.90
2023-02-12T03:36:27.366Z,39.20
2023-02-12T03:37:27.353Z,44.50
2023-02-12T03:38:27.339Z,43.20
2023-02-12T03:39:27.302Z,43.60
2023-02-12T03:40:27.303Z,38.80
2023-02-12T03:41:27.290Z,43.10
2023-02-12T03:42:27.300Z,41.30
2023-02-12T03:43:27.261Z,39.60
2023-02-12T03:44:27.279Z,40.30
2023-02-12T03:45:27.338Z,37.60
2023-02-12T03:46:27.237Z,42.90
2023-02-12T03:47:27.229Z,37.60
2023-02-12T03:48:27.217Z,41.40
2023-02-12T03:49:27.159Z,39.10
2023-02-12T03:50:27.190Z,40.60
2023-02-12T03:51:27.140Z,39.80
2023-02-12T03:52:27.154Z,41.00
2023-02-12T03:53:27.172Z,38.50
2023-02-12T03:54:27.114Z,39.70
2023-02-12T03:55:27.085Z,41.80
2023-02-12T03:56:27.141Z,40.10
2023-02-12T03:57:27.053Z,39.70
2023-02-12T03:58:27.087Z,41.90
2023-02-12T03:59:27.052Z,42.40
2023-02-12T04:00:27.070Z,40.80
2023-02-12T04:01:27.133Z,39.80
2023-02-12T04:02:27.012Z,38.30
2023-02-12T04:03:27.004Z,38.40
2023-02-12T04:04:27.166Z,40.70
2023-02-12T04:05:26.950Z,39.60
2023-02-12T04:06:26.973Z,35.90
2023-02-12T04:07:26.935Z,39.20
2023-02-12T04:08:26.967Z,39.90
2023-02-12T04:09:26.916Z,35.30
2023-02-12T04:10:26.914Z,35.60
2023-02-12T04:11:26.859Z,40.20
2023-02-12T04:12:26.880Z,37.50
2023-02-12T04:13:26.851Z,38.20
2023-02-12T04:14:26.886Z,38.00
2023-02-12T04:15:26.807Z,36.20
2023-02-12T04:16:26.839Z,41.70
2023-02-12T04:17:26.782Z,39.40
2023-02-12T04:18:26.800Z,38.50
2023-02-12T04:19:26.775Z,38.70
2023-02-12T04:20:26.785Z,39.20
2023-02-12T04:21:26.763Z,38.10
2023-02-12T04:22:27.661Z,38.80
2023-02-12T04:23:26.711Z,38.90
2023-02-12T04:24:26.763Z,36.80
2023-02-12T04:25:26.709Z,37.60
2023-02-12T04:26:26.699Z,36.60
2023-02-12T04:27:26.659Z,39.50
2023-02-12T04:28:26.783Z,37.70
2023-02-12T04:29:26.628Z,39.10
2023-02-12T04:30:26.692Z,40.60
2023-02-12T04:31:26.900Z,42.70
2023-02-12T04:32:26.610Z,41.10
2023-02-12T04:33:26.568Z,37.20
2023-02-12T04:34:26.595Z,41.40
2023-02-12T04:35:26.543Z,40.80
2023-02-12T04:36:26.601Z,41.60
2023-02-12T04:37:26.526Z,42.70
2023-02-12T04:38:26.540Z,41.00
2023-02-12T04:39:26.506Z,41.10
2023-02-12T04:40:26.511Z,42.00
2023-02-12T04:41:26.496Z,43.80
2023-02-12T04:42:26.492Z,45.20
2023-02-12T04:43:26.469Z,41.30
2023-02-12T04:44:26.489Z,41.60
2023-02-12T04:45:26.439Z,41.90
2023-02-12T04:46:26.485Z,44.20
2023-02-12T04:47:26.401Z,43.90
2023-02-12T04:48:26.420Z,43.60
2023-02-12T04:49:26.403Z,42.70
2023-02-12T04:50:26.378Z,40.60
2023-02-12T04:51:26.350Z,41.80
2023-02-12T04:52:26.362Z,40.10
2023-02-12T04:53:26.344Z,41.40
2023-02-12T04:54:26.314Z,42.70
2023-02-12T04:55:26.313Z,45.60
2023-02-12T04:56:26.321Z,42.60
2023-02-12T04:57:26.284Z,42.40
2023-02-12T04:58:26.270Z,47.20
2023-02-12T04:59:26.226Z,44.40
2023-02-12T05:00:26.255Z,42.20
2023-02-12T05:01:26.297Z,45.20
2023-02-12T05:02:26.213Z,44.20
2023-02-12T05:03:26.178Z,44.70
2023-02-12T05:04:26.188Z,46.40
2023-02-12T05:05:26.205Z,43.10
2023-02-12T05:06:26.176Z,42.80
2023-02-12T05:07:26.123Z,43.50
2023-02-12T05:08:26.140Z,43.70
2023-02-12T05:09:26.123Z,44.30
2023-02-12T05:10:26.140Z,43.80
2023-02-12T05:11:26.078Z,49.70
2023-02-12T05:12:26.085Z,45.50
2023-02-12T05:13:26.045Z,46.10
2023-02-12T05:14:26.049Z,47.80
2023-02-12T05:15:26.049Z,44.00
2023-02-12T05:16:26.028Z,43.90
2023-02-12T05:17:26.019Z,43.70
2023-02-12T05:18:26.024Z,49.20
2023-02-12T05:19:25.972Z,42.80
2023-02-12T05:20:25.978Z,43.90
2023-02-12T05:21:25.938Z,47.50
2023-02-12T05:22:25.986Z,46.00
2023-02-12T05:23:25.921Z,46.60
2023-02-12T05:24:25.940Z,42.30
2023-02-12T05:25:25.875Z,46.30
2023-02-12T05:26:25.901Z,46.00
2023-02-12T05:27:25.881Z,43.00
2023-02-12T05:28:25.906Z,44.30
2023-02-12T05:29:25.849Z,45.00
2023-02-12T05:30:25.857Z,48.90
2023-02-12T05:31:25.954Z,46.30
2023-02-12T05:32:25.800Z,50.70
2023-02-12T05:33:25.854Z,47.30
2023-02-12T05:34:25.770Z,45.30
2023-02-12T05:35:25.803Z,46.40
2023-02-12T05:36:25.751Z,46.10
2023-02-12T05:37:25.748Z,44.60
2023-02-12T05:38:25.709Z,47.90
2023-02-12T05:39:25.725Z,42.60
2023-02-12T05:40:25.717Z,47.30
2023-02-12T05:41:25.718Z,44.50
2023-02-12T05:42:25.653Z,44.00
2023-02-12T05:43:25.719Z,45.30
2023-02-12T05:44:25.640Z,48.40
2023-02-12T05:45:25.639Z,47.50
2023-02-12T05:46:25.679Z,46.80
2023-02-12T05:47:25.623Z,48.00
2023-02-12T05:48:25.593Z,49.20
2023-02-12T05:49:25.609Z,47.90
2023-02-12T05:50:25.567Z,50.20
2023-02-12T05:51:25.558Z,45.60
2023-02-12T05:52:25.563Z,48.50
2023-02-12T05:53:25.536Z,46.30
2023-02-12T05:54:25.505Z,44.80
2023-02-12T05:55:25.521Z,47.00
2023-02-12T05:56:25.465Z,50.40
2023-02-12T05:57:25.509Z,48.40
2023-02-12T05:58:25.463Z,47.20
2023-02-12T05:59:25.476Z,47.00
2023-02-12T06:00:25.429Z,45.70
2023-02-12T06:01:25.423Z,47.90
2023-02-12T06:02:25.490Z,47.90
2023-02-12T06:03:25.454Z,46.50
2023-02-12T06:04:25.457Z,48.10
2023-02-12T06:05:25.384Z,50.60
2023-02-12T06:06:25.365Z,46.60
2023-02-12T06:07:25.352Z,49.60
2023-02-12T06:08:25.341Z,46.70
2023-02-12T06:09:25.319Z,46.60
2023-02-12T06:10:25.331Z,46.20
2023-02-12T06:11:25.303Z,50.00
2023-02-12T06:12:25.259Z,47.30
2023-02-12T06:13:25.277Z,48.00
2023-02-12T06:14:25.242Z,46.40
2023-02-12T06:15:25.296Z,47.20
2023-02-12T06:16:25.254Z,47.80
2023-02-12T06:17:25.212Z,44.90
2023-02-12T06:18:25.177Z,47.20
2023-02-12T06:19:25.228Z,47.40
2023-02-12T06:20:25.150Z,45.80
2023-02-12T06:21:25.185Z,48.20
2023-02-12T06:22:25.127Z,44.40
2023-02-12T06:23:25.127Z,48.70
2023-02-12T06:24:25.111Z,49.90
2023-02-12T06:25:25.132Z,51.30
2023-02-12T06:26:25.112Z,50.10
2023-02-12T06:27:25.082Z,48.70
2023-02-12T06:28:25.130Z,49.10
2023-02-12T06:29:25.061Z,48.40
2023-02-12T06:30:25.044Z,48.90
2023-02-12T06:31:25.184Z,47.90
2023-02-12T06:32:24.990Z,51.20
2023-02-12T06:33:25.063Z,47.40
2023-02-12T06:34:24.973Z,46.60
2023-02-12T06:35:24.985Z,52.10
2023-02-12T06:36:24.967Z,51.20
2023-02-12T06:37:24.991Z,51.10
2023-02-12T06:38:25.085Z,47.10
2023-02-12T06:39:24.934Z,47.00
2023-02-12T06:40:24.904Z,50.10
2023-02-12T06:41:24.900Z,50.70
2023-02-12T06:42:24.882Z,52.20
2023-02-12T06:43:24.884Z,51.20
2023-02-12T06:44:24.851Z,50.90
2023-02-12T06:45:24.866Z,51.70
2023-02-12T06:46:24.869Z,49.20
2023-02-12T06:47:24.822Z,54.30
2023-02-12T06:48:24.805Z,47.20
2023-02-12T06:49:24.797Z,48.50
2023-02-12T06:50:24.786Z,50.10
2023-02-12T06:51:24.771Z,45.10
2023-02-12T06:52:24.752Z,49.40
2023-02-12T06:53:24.739Z,47.60
2023-02-12T06:54:24.712Z,52.70
2023-02-12T06:55:24.783Z,50.10
2023-02-12T06:56:24.716Z,48.90
2023-02-12T06:57:24.687Z,47.80
2023-02-12T06:58:24.668Z,53.80
2023-02-12T06:59:24.689Z,54.40
2023-02-12T07:00:24.624Z,46.90
2023-02-12T07:01:24.628Z,49.70
2023-02-12T07:02:24.591Z,49.50
2023-02-12T07:03:24.625Z,48.40
2023-02-12T07:04:24.574Z,50.10
2023-02-12T07:05:24.588Z,48.30
2023-02-12T07:06:24.550Z,49.50
2023-02-12T07:07:24.547Z,50.20
2023-02-12T07:08:24.565Z,45.80
2023-02-12T07:09:24.539Z,45.90
2023-02-12T07:10:24.513Z,49.50
2023-02-12T07:11:24.533Z,50.00
2023-02-12T07:12:24.478Z,52.80
2023-02-12T07:13:24.490Z,49.00
2023-02-12T07:14:24.469Z,51.60
2023-02-12T07:15:24.452Z,53.30
2023-02-12T07:16:24.519Z,52.20
2023-02-12T07:17:24.423Z,51.30
2023-02-12T07:18:24.382Z,55.10
2023-02-12T07:19:24.440Z,51.10
2023-02-12T07:20:24.354Z,53.30
2023-02-12T07:21:24.427Z,53.30
2023-02-12T07:22:24.355Z,52.40
2023-02-12T07:23:24.350Z,49.40
2023-02-12T07:24:24.319Z,52.70
2023-02-12T07:25:24.332Z,49.00
2023-02-12T07:26:24.274Z,48.70
2023-02-12T07:27:24.302Z,49.10
2023-02-12T07:28:24.301Z,49.70
2023-02-12T07:29:24.264Z,51.80
2023-02-12T07:30:24.272Z,48.60
2023-02-12T07:31:24.458Z,53.90
2023-02-12T07:32:24.201Z,52.80
2023-02-12T07:33:24.214Z,52.00
2023-02-12T07:34:24.184Z,48.10
2023-02-12T07:35:24.199Z,52.40
2023-02-12T07:36:24.154Z,49.40
2023-02-12T07:37:24.166Z,51.30
2023-02-12T07:38:24.120Z,51.60
2023-02-12T07:39:24.150Z,50.70
2023-02-12T07:40:24.125Z,49.00
2023-02-12T07:41:24.115Z,51.10
2023-02-12T07:42:24.077Z,51.20
2023-02-12T07:43:24.072Z,53.20
2023-02-12T07:44:24.065Z,47.20
2023-02-12T07:45:24.155Z,46.00
2023-02-12T07:46:24.010Z,49.10
2023-02-12T07:47:24.051Z,48.70
2023-02-12T07:48:23.995Z,50.60
2023-02-12T07:49:24.016Z,49.70
2023-02-12T07:50:23.968Z,47.20
2023-02-12T07:51:23.979Z,49.00
2023-02-12T07:52:23.930Z,49.80
2023-02-12T07:53:23.958Z,48.90
2023-02-12T07:54:23.913Z,46.60
2023-02-12T07:55:23.924Z,46.70
2023-02-12T07:56:23.883Z,45.40
2023-02-12T07:57:23.894Z,44.20
2023-02-12T07:58:23.881Z,45.20
2023-02-12T07:59:23.891Z,46.40
2023-02-12T08:00:23.833Z,45.90
2023-02-12T08:01:23.858Z,45.50
2023-02-12T08:02:23.877Z,44.60
2023-02-12T08:03:23.838Z,43.80
2023-02-12T08:04:23.843Z,42.30
2023-02-12T08:05:23.798Z,40.80
2023-02-12T08:06:23.767Z,42.70
2023-02-12T08:07:23.767Z,42.50
2023-02-12T08:08:23.749Z,40.80
2023-02-12T08:09:23.753Z,40.20
2023-02-12T08:10:23.721Z,40.50
2023-02-12T08:11:23.721Z,40.40
2023-02-12T08:12:23.718Z,41.90
2023-02-12T08:13:23.687Z,42.70
2023-02-12T08:14:23.686Z,46.50
2023-02-12T08:15:23.652Z,41.20
2023-02-12T08:16:23.648Z,41.00
2023-02-12T08:17:23.644Z,40.30
2023-02-12T08:18:23.614Z,39.50
2023-02-12T08:19:26.427Z,41.00
2023-02-12T08:20:23.571Z,42.20
2023-02-12T08:21:23.589Z,42.70
2023-02-12T08:22:23.584Z,41.90
2023-02-12T08:23:23.576Z,41.30
2023-02-12T08:24:23.526Z,38.60
2023-02-12T08:25:23.560Z,39.60
2023-02-12T08:26:23.491Z,39.30
2023-02-12T08:27:23.546Z,39.80
2023-02-12T08:28:23.528Z,39.40
2023-02-12T08:29:23.483Z,46.30
2023-02-12T08:30:23.438Z,38.90
2023-02-12T08:31:23.619Z,37.60
2023-02-12T08:32:23.452Z,36.60
2023-02-12T08:33:23.418Z,40.60
2023-02-12T08:34:23.399Z,42.10
2023-02-12T08:35:23.435Z,38.70
2023-02-12T08:36:23.370Z,39.00
2023-02-12T08:37:24.261Z,42.30
2023-02-12T08:38:23.333Z,36.10
2023-02-12T08:39:23.336Z,38.40
2023-02-12T08:40:23.315Z,39.90
2023-02-12T08:41:23.329Z,34.20
2023-02-12T08:42:23.325Z,37.80
2023-02-12T08:43:23.281Z,36.10
2023-02-12T08:44:23.265Z,37.90
2023-02-12T08:45:23.258Z,37.70
2023-02-12T08:46:23.238Z,37.00
2023-02-12T08:47:23.239Z,37.90
2023-02-12T08:48:23.198Z,40.80
2023-02-12T08:49:23.231Z,34.30
2023-02-12T08:50:23.157Z,36.20
2023-02-12T08:51:23.186Z,34.30
2023-02-12T08:52:23.163Z,37.00
2023-02-12T08:53:23.144Z,35.90
2023-02-12T08:54:23.124Z,37.30
2023-02-12T08:55:23.116Z,32.90
2023-02-12T08:56:23.089Z,33.10
2023-02-12T08:57:23.119Z,33.50
2023-02-12T08:58:23.139Z,32.00
2023-02-12T08:59:23.114Z,34.80
2023-02-12T09:00:23.033Z,31.80
2023-02-12T09:01:23.239Z,31.80
2023-02-12T09:02:23.066Z,33.70
2023-02-12T09:03:23.067Z,33.60
2023-02-12T09:04:23.019Z,30.40
2023-02-12T09:05:22.997Z,32.10
2023-02-12T09:06:22.946Z,31.20
2023-02-12T09:07:22.947Z,30.30
2023-02-12T09:08:22.920Z,30.70
2023-02-12T09:09:22.930Z,29.60
2023-02-12T09:10:22.940Z,31.30
2023-02-12T09:11:22.903Z,33.10
2023-02-12T09:12:22.852Z,29.70
2023-02-12T09:13:22.876Z,27.30
2023-02-12T09:14:22.826Z,31.30
2023-02-12T09:15:22.878Z,25.60
2023-02-12T09:16:22.876Z,27.30
2023-02-12T09:17:22.826Z,26.10
2023-02-12T09:18:22.782Z,29.50
2023-02-12T09:19:22.806Z,27.10
2023-02-12T09:20:22.782Z,24.80
2023-02-12T09:21:22.781Z,24.40
2023-02-12T09:22:22.726Z,23.90
2023-02-12T09:23:22.753Z,24.50
2023-02-12T09:24:22.708Z,22.60
2023-02-12T09:25:22.747Z,22.50
2023-02-12T09:26:22.679Z,21.30
2023-02-12T09:27:22.719Z,22.40
2023-02-12T09:28:22.785Z,20.40
2023-02-12T09:29:22.665Z,23.30
2023-02-12T09:30:22.631Z,22.30
2023-02-12T09:31:22.812Z,24.50
2023-02-12T09:32:22.605Z,21.40
2023-02-12T09:33:22.636Z,21.90
2023-02-12T09:34:22.572Z,22.00
2023-02-12T09:35:22.599Z,25.10
2023-02-12T09:36:22.588Z,22.80
2023-02-12T09:37:22.588Z,21.30
2023-02-12T09:38:22.675Z,22.80
2023-02-12T09:39:22.552Z,21.00
2023-02-12T09:40:22.488Z,22.70
2023-02-12T09:41:22.510Z,21.40
2023-02-12T09:42:22.463Z,17.80
2023-02-12T09:43:22.507Z,21.30
2023-02-12T09:44:22.446Z,21.70
2023-02-12T09:45:22.465Z,19.60
2023-02-12T09:46:22.439Z,23.20
2023-02-12T09:47:22.439Z,23.40
2023-02-12T09:48:22.427Z,19.00
2023-02-12T09:49:22.377Z,15.70
2023-02-12T09:50:22.380Z,16.60
2023-02-12T09:51:22.345Z,18.30
2023-02-12T09:52:22.388Z,19.50
2023-02-12T09:53:22.340Z,17.20
2023-02-12T09:54:22.347Z,17.50
2023-02-12T09:55:22.290Z,16.60
2023-02-12T09:56:22.331Z,17.10
2023-02-12T09:57:22.268Z,17.90
2023-02-12T09:58:22.302Z,19.00
2023-02-12T09:59:22.272Z,21.00
2023-02-12T10:00:22.295Z,19.60
2023-02-12T10:01:22.252Z,20.90
2023-02-12T10:02:22.230Z,21.10
2023-02-12T10:03:22.195Z,19.20
2023-02-12T10:04:22.282Z,19.90
2023-02-12T10:05:22.183Z,20.20
2023-02-12T10:06:22.168Z,21.50
2023-02-12T10:07:22.136Z,21.50
2023-02-12T10:08:24.611Z,18.60
2023-02-12T10:09:22.100Z,17.50
2023-02-12T10:10:22.110Z,18.80
2023-02-12T10:11:22.113Z,20.20
2023-02-12T10:12:22.098Z,18.10
2023-02-12T10:13:22.073Z,14.60
2023-02-12T10:14:22.065Z,21.90
2023-02-12T10:15:22.041Z,22.50
2023-02-12T10:16:22.102Z,20.10
2023-02-12T10:17:22.043Z,20.60
2023-02-12T10:18:22.069Z,19.10
2023-02-12T10:19:22.015Z,22.80
2023-02-12T10:20:21.994Z,23.30
2023-02-12T10:21:22.002Z,22.60
2023-02-12T10:22:21.975Z,18.40
2023-02-12T10:23:21.923Z,19.00
2023-02-12T10:24:21.955Z,24.10
2023-02-12T10:25:21.924Z,27.80
2023-02-12T10:26:21.932Z,26.30
2023-02-12T10:27:21.891Z,29.50
2023-02-12T10:28:21.956Z,24.20
2023-02-12T10:29:21.867Z,23.50
2023-02-12T10:30:21.877Z,22.70
2023-02-12T10:31:21.910Z,24.00
2023-02-12T10:32:21.847Z,28.90
2023-02-12T10:33:21.784Z,25.90
2023-02-12T10:34:21.803Z,27.40
2023-02-12T10:35:21.804Z,25.60
2023-02-12T10:36:21.774Z,27.10
2023-02-12T10:37:21.761Z,27.00
2023-02-12T10:38:21.739Z,26.30
2023-02-12T10:39:21.693Z,25.20
2023-02-12T10:40:21.719Z,23.60
2023-02-12T10:41:21.702Z,23.20
2023-02-12T10:42:21.709Z,21.20
2023-02-12T10:43:21.662Z,23.70
2023-02-12T10:44:21.675Z,25.40
2023-02-12T10:45:21.623Z,24.60
2023-02-12T10:46:21.703Z,24.40
2023-02-12T10:47:21.666Z,23.60
2023-02-12T10:48:21.630Z,25.20
2023-02-12T10:49:21.568Z,25.40
2023-02-12T10:50:21.572Z,23.70
2023-02-12T10:51:21.548Z,23.80
2023-02-12T10:52:21.558Z,25.60
2023-02-12T10:53:21.578Z,21.20
2023-02-12T10:54:21.521Z,21.60
2023-02-12T10:55:21.474Z,26.00
2023-02-12T10:56:21.511Z,23.90
2023-02-12T10:57:21.487Z,23.70
2023-02-12T10:58:21.509Z,24.50
2023-02-12T10:59:21.427Z,25.90
2023-02-12T11:00:21.469Z,24.90
2023-02-12T11:01:21.446Z,21.50
2023-02-12T11:02:21.427Z,23.50
2023-02-12T11:03:21.385Z,23.30
2023-02-12T11:04:21.388Z,20.50
2023-02-12T11:05:21.379Z,21.70
2023-02-12T11:06:21.374Z,20.40
2023-02-12T11:07:21.326Z,19.80
2023-02-12T11:08:21.332Z,22.30
2023-02-12T11:09:21.319Z,23.00
2023-02-12T11:10:21.362Z,20.50
2023-02-12T11:11:21.294Z,20.50
2023-02-12T11:12:21.332Z,22.30
2023-02-12T11:13:21.244Z,22.30
2023-02-12T11:14:21.289Z,21.60
2023-02-12T11:15:21.212Z,22.50
2023-02-12T11:16:21.316Z,19.00
2023-02-12T11:17:21.199Z,19.60
2023-02-12T11:18:21.195Z,19.10
2023-02-12T11:19:21.166Z,17.90
2023-02-12T11:20:21.308Z,18.70
2023-02-12T11:21:21.157Z,18.20
2023-02-12T11:22:21.154Z,19.60
2023-02-12T11:23:21.136Z,17.50
2023-02-12T11:24:21.145Z,20.00
2023-02-12T11:25:21.106Z,18.10
2023-02-12T11:26:21.114Z,16.40
2023-02-12T11:27:21.093Z,14.30
2023-02-12T11:28:21.239Z,19.10
2023-02-12T11:29:21.042Z,17.20
2023-02-12T11:30:21.257Z,14.50
2023-02-12T11:31:21.214Z,12.30
2023-02-12T11:32:21.049Z,12.90
2023-02-12T11:33:20.990Z,12.40
2023-02-12T11:34:20.970Z,13.90
2023-02-12T11:35:20.950Z,13.60
2023-02-12T11:36:20.978Z,13.30
2023-02-12T11:37:20.974Z,15.20
2023-02-12T11:38:21.348Z,13.40
2023-02-12T11:39:20.888Z,14.80
2023-02-12T11:40:20.912Z,12.80
2023-02-12T11:41:20.856Z,12.40
2023-02-12T11:42:20.865Z,13.30
2023-02-12T11:43:20.878Z,14.70
2023-02-12T11:44:20.847Z,12.10
2023-02-12T11:45:20.827Z,14.10
2023-02-12T11:46:20.921Z,15.10
2023-02-12T11:47:20.832Z,11.70
2023-02-12T11:48:20.802Z,11.80
2023-02-12T11:49:20.765Z,13.50
2023-02-12T11:50:20.764Z,14.00
2023-02-12T11:51:20.736Z,12.90
2023-02-12T11:52:20.843Z,11.10
2023-02-12T11:53:20.698Z,15.40
2023-02-12T11:54:20.720Z,14.90
2023-02-12T11:55:20.677Z,15.30
2023-02-12T11:56:20.697Z,14.20
2023-02-12T11:57:20.671Z,12.70
2023-02-12T11:58:20.683Z,12.30
2023-02-12T11:59:20.635Z,11.10
2023-02-12T12:00:20.704Z,10.80
2023-02-12T12:01:20.594Z,11.30
2023-02-12T12:02:20.642Z,13.10
2023-02-12T12:03:20.651Z,12.30
2023-02-12T12:04:20.565Z,14.30
2023-02-12T12:05:20.543Z,14.40
2023-02-12T12:06:20.539Z,12.20
2023-02-12T12:07:20.515Z,11.80
2023-02-12T12:08:20.563Z,13.00
2023-02-12T12:09:20.497Z,11.90
2023-02-12T12:10:20.505Z,10.30
2023-02-12T12:11:20.464Z,11.90
2023-02-12T12:12:20.486Z,13.00
2023-02-12T12:13:20.446Z,12.90
2023-02-12T12:14:20.480Z,13.30
2023-02-12T12:15:20.406Z,11.50
2023-02-12T12:16:20.441Z,11.80
2023-02-12T12:17:20.370Z,11.20
2023-02-12T12:18:20.394Z,10.80
2023-02-12T12:19:20.376Z,11.80
2023-02-12T12:20:20.359Z,10.60
2023-02-12T12:21:20.412Z,12.40
2023-02-12T12:22:20.341Z,13.90
2023-02-12T12:23:20.303Z,12.30
2023-02-12T12:24:20.322Z,11.60
2023-02-12T12:25:20.312Z,13.10
2023-02-12T12:26:20.318Z,12.50
2023-02-12T12:27:20.253Z,13.30
2023-02-12T12:28:20.295Z,12.20
2023-02-12T12:29:20.213Z,11.70
2023-02-12T12:30:20.232Z,11.40
2023-02-12T12:31:20.283Z,14.10
2023-02-12T12:32:20.237Z,15.40
2023-02-12T12:33:20.168Z,13.50
2023-02-12T12:34:20.205Z,13.40
2023-02-12T12:35:20.168Z,13.10
2023-02-12T12:36:20.159Z,14.40
2023-02-12T12:37:20.136Z,16.50
2023-02-12T12:38:20.118Z,14.60
2023-02-12T12:39:20.092Z,14.20
2023-02-12T12:40:20.116Z,13.80
2023-02-12T12:41:20.054Z,15.10
2023-02-12T12:42:20.076Z,15.40
2023-02-12T12:43:20.033Z,16.00
2023-02-12T12:44:20.049Z,13.90
2023-02-12T12:45:20.012Z,14.30
2023-02-12T12:46:20.056Z,16.40
2023-02-12T12:47:20.026Z,17.00
2023-02-12T12:48:19.997Z,16.40
2023-02-12T12:49:20.047Z,16.50
2023-02-12T12:50:19.969Z,15.10
2023-02-12T12:51:19.945Z,15.20
2023-02-12T12:52:19.958Z,16.40